Time;durP1;ratioP1;P1;durP2;ratioP2;P2;SDS_P1;SDS_P2;PMS_P1;PMS_P2;Temp;Humidity;BMP_temperature;BMP_pressure;BME280_temperature;BME280_humidity;BME280_pressure;Samples;Min_cycle;Max_cycle;Signal;HPM_P1;HPM_P2
2023/02/12 00:01:41;;;;;;;45.67;9.50;;;6.60;99.90;;;;;;5064171;28;20048;-65
2023/02/12 00:04:07;;;;;;;32.40;6.50;;;6.60;99.90;;;;;;5066405;28;20045;-65
2023/02/12 00:06:34;;;;;;;49.75;8.32;;;6.50;99.90;;;;;;5047248;28;20040;-65
2023/02/12 00:08:59;;;;;;;55.03;9.15;;;6.50;99.90;;;;;;5065303;28;20040;-65
2023/02/12 00:11:28;;;;;;;49.42;10.85;;;6.50;99.90;;;;;;5048731;28;20037;-64
2023/02/12 00:13:56;;;;;;;60.00;9.15;;;6.50;99.90;;;;;;5047103;28;20044;-65
2023/02/12 00:16:24;;;;;;;39.67;10.88;;;6.50;99.90;;;;;;5065991;28;20041;-65
2023/02/12 00:18:55;;;;;;;35.03;8.45;;;6.40;99.90;;;;;;5063787;28;20288;-65
2023/02/12 00:21:22;;;;;;;42.33;8.35;;;6.40;99.90;;;;;;5069393;28;20072;-65
2023/02/12 00:23:48;;;;;;;34.40;8.25;;;6.50;99.90;;;;;;5068695;28;20079;-65
2023/02/12 00:26:16;;;;;;;42.58;9.60;;;6.40;99.90;;;;;;5050704;28;20174;-65
2023/02/12 00:28:42;;;;;;;41.67;8.65;;;6.40;99.90;;;;;;5041832;28;20115;-65
2023/02/12 00:31:11;;;;;;;26.98;6.00;;;6.40;99.90;;;;;;5068621;28;20044;-65
2023/02/12 00:33:37;;;;;;;45.22;9.75;;;6.40;99.90;;;;;;5051287;28;20036;-65
2023/02/12 00:36:03;;;;;;;45.92;8.25;;;6.40;99.90;;;;;;5039503;28;20091;-65
2023/02/12 00:38:29;;;;;;;39.08;7.93;;;6.40;99.90;;;;;;5035709;28;20482;-65
2023/02/12 00:40:56;;;;;;;20.67;5.68;;;6.40;99.90;;;;;;5058455;28;20137;-65
2023/02/12 00:43:21;;;;;;;21.30;6.00;;;6.50;99.90;;;;;;5050468;28;20124;-66
2023/02/12 00:45:47;;;;;;;36.15;9.73;;;6.40;99.90;;;;;;5051565;28;20127;-65
2023/02/12 00:48:15;;;;;;;38.45;10.23;;;6.40;99.90;;;;;;5050253;28;20478;-65
2023/02/12 00:50:42;;;;;;;42.55;10.75;;;6.40;99.90;;;;;;5069659;28;20040;-65
2023/02/12 00:53:08;;;;;;;37.88;9.20;;;6.40;99.90;;;;;;5033689;28;20499;-66
2023/02/12 00:55:34;;;;;;;50.35;9.00;;;6.40;99.90;;;;;;5034807;28;20101;-65
2023/02/12 00:58:00;;;;;;;49.28;9.27;;;6.40;99.90;;;;;;5068273;28;20056;-65
2023/02/12 01:00:26;;;;;;;40.17;8.75;;;6.40;99.90;;;;;;5069815;28;20115;-66
2023/02/12 01:02:52;;;;;;;59.00;9.05;;;6.40;99.90;;;;;;5032105;28;20036;-65
2023/02/12 01:05:18;;;;;;;51.92;9.60;;;6.40;99.90;;;;;;5068899;28;20047;-65
2023/02/12 01:07:49;;;;;;;40.17;10.07;;;6.40;99.90;;;;;;5051705;28;20355;-65
2023/02/12 01:10:15;;;;;;;52.80;11.30;;;6.40;99.90;;;;;;5067889;28;20041;-65
2023/02/12 01:12:42;;;;;;;43.97;7.60;;;6.40;99.90;;;;;;5069208;28;20055;-65
2023/02/12 01:15:11;;;;;;;50.47;9.45;;;6.40;99.90;;;;;;5050016;28;20718;-67
2023/02/12 01:17:37;;;;;;;47.75;8.70;;;6.40;99.90;;;;;;5068795;28;20091;-67
2023/02/12 01:20:06;;;;;;;50.42;9.95;;;6.40;99.90;;;;;;5034088;28;20080;-67
2023/02/12 01:22:33;;;;;;;58.42;9.05;;;6.40;99.90;;;;;;5059457;28;20076;-68
2023/02/12 01:24:59;;;;;;;56.17;9.68;;;6.40;99.90;;;;;;5066798;28;20044;-67
2023/02/12 01:27:25;;;;;;;64.60;10.25;;;6.40;99.90;;;;;;5033120;28;20544;-67
2023/02/12 01:29:50;;;;;;;60.03;10.05;;;6.40;99.90;;;;;;5068536;28;20086;-67
2023/02/12 01:32:17;;;;;;;60.10;11.50;;;6.40;99.90;;;;;;5048693;28;20048;-67
2023/02/12 01:34:43;;;;;;;68.13;13.05;;;6.40;99.90;;;;;;5050471;28;20546;-67
2023/02/12 01:37:08;;;;;;;55.10;10.77;;;6.40;99.90;;;;;;5067970;28;20127;-67
2023/02/12 01:39:35;;;;;;;66.82;14.98;;;6.40;99.90;;;;;;5068996;28;20048;-67
2023/02/12 01:42:01;;;;;;;54.90;13.27;;;6.40;99.90;;;;;;5050291;28;20083;-67
2023/02/12 01:44:33;;;;;;;63.92;13.68;;;6.40;99.90;;;;;;5067622;28;20056;-67
2023/02/12 01:47:05;;;;;;;54.35;12.52;;;6.40;99.90;;;;;;5050473;28;20548;-67
2023/02/12 01:49:37;;;;;;;45.80;9.73;;;6.40;99.90;;;;;;5067274;28;20090;-67
2023/02/12 01:52:27;;;;;;;52.58;11.65;;;6.40;99.90;;;;;;5068247;28;20028;-67
2023/02/12 01:54:57;;;;;;;48.60;9.57;;;6.40;99.90;;;;;;5049757;28;20406;-67
2023/02/12 01:57:25;;;;;;;63.85;12.00;;;6.40;99.90;;;;;;5066574;28;20502;-67
2023/02/12 01:59:53;;;;;;;50.72;9.02;;;6.40;99.90;;;;;;5068503;28;20044;-67
2023/02/12 02:02:19;;;;;;;49.75;10.07;;;6.40;99.90;;;;;;5066932;28;20044;-68
2023/02/12 02:04:49;;;;;;;51.58;9.70;;;6.30;99.90;;;;;;5049922;28;20032;-67
2023/02/12 02:07:15;;;;;;;36.53;8.82;;;6.40;99.90;;;;;;5049038;28;20053;-67
2023/02/12 02:09:42;;;;;;;57.08;8.93;;;6.40;99.90;;;;;;5067735;28;20043;-68
2023/02/12 02:14:56;;;;;;;57.75;8.45;;;6.40;99.90;;;;;;5036596;28;20044;-68
2023/02/12 02:17:22;;;;;;;43.78;8.27;;;6.30;99.90;;;;;;5068354;28;20178;-67
2023/02/12 02:19:54;;;;;;;43.88;8.05;;;6.40;99.90;;;;;;5066397;28;20143;-68
2023/02/12 02:22:39;;;;;;;44.65;8.77;;;6.30;99.90;;;;;;5050049;28;20426;-68
2023/02/12 02:25:17;;;;;;;45.95;8.18;;;6.30;99.90;;;;;;5064644;28;20083;-68
2023/02/12 02:28:05;;;;;;;24.75;6.65;;;6.30;99.90;;;;;;5048513;28;20037;-68
2023/02/12 02:30:44;;;;;;;36.67;7.00;;;6.30;99.90;;;;;;5068545;28;20091;-68
2023/02/12 02:33:37;;;;;;;34.72;7.03;;;6.30;99.90;;;;;;5066398;28;20076;-67
2023/02/12 02:36:27;;;;;;;35.38;6.95;;;6.30;99.90;;;;;;5063980;28;20045;-68
2023/02/12 02:39:25;;;;;;;49.95;6.85;;;6.30;99.90;;;;;;5049939;28;20123;-68
2023/02/12 02:42:10;;;;;;;41.53;8.00;;;6.20;99.90;;;;;;5048370;28;20059;-68
2023/02/12 02:44:44;;;;;;;28.90;6.45;;;6.20;99.90;;;;;;5048635;28;20036;-68
2023/02/12 02:47:13;;;;;;;32.17;7.40;;;6.20;99.90;;;;;;5067275;28;20040;-68
2023/02/12 02:49:52;;;;;;;31.92;7.22;;;6.20;99.90;;;;;;5065769;28;20052;-68
2023/02/12 02:52:23;;;;;;;41.13;7.82;;;6.10;99.90;;;;;;5068027;28;20052;-68
2023/02/12 02:54:55;;;;;;;38.47;6.90;;;6.10;99.90;;;;;;5048266;28;20090;-68
2023/02/12 02:57:54;;;;;;;18.17;6.47;;;6.20;99.90;;;;;;5065845;28;20405;-68
2023/02/12 03:00:26;;;;;;;28.38;8.35;;;6.20;99.90;;;;;;5035373;28;20064;-67
2023/02/12 03:03:01;;;;;;;31.55;8.02;;;6.20;99.90;;;;;;5066114;28;20516;-68
2023/02/12 03:05:39;;;;;;;40.03;9.52;;;6.20;99.90;;;;;;5032702;28;20076;-68
2023/02/12 03:08:09;;;;;;;33.95;8.02;;;6.20;99.90;;;;;;5048725;28;20052;-68
2023/02/12 03:10:41;;;;;;;49.55;13.55;;;6.20;99.90;;;;;;5031132;28;20110;-67
2023/02/12 03:13:17;;;;;;;69.70;17.63;;;6.20;99.90;;;;;;5067545;28;20051;-68
2023/02/12 03:15:59;;;;;;;60.42;19.15;;;6.10;99.90;;;;;;5031567;28;20076;-68
2023/02/12 03:18:41;;;;;;;38.88;14.63;;;6.10;99.90;;;;;;5067549;28;20044;-68
2023/02/12 03:21:21;;;;;;;45.53;14.90;;;6.10;99.90;;;;;;5048047;28;20457;-67
2023/02/12 03:23:58;;;;;;;31.55;10.30;;;6.10;99.90;;;;;;5048511;28;20084;-67
2023/02/12 03:27:04;;;;;;;49.42;13.38;;;6.10;99.90;;;;;;5067587;28;20045;-67
2023/02/12 03:29:30;;;;;;;25.88;8.90;;;6.10;99.90;;;;;;5037507;28;20079;-68
2023/02/12 03:32:02;;;;;;;38.35;13.07;;;6.10;99.90;;;;;;5048568;28;20048;-67
2023/02/12 03:34:31;;;;;;;45.20;13.70;;;6.10;99.90;;;;;;5067497;28;20060;-67
2023/02/12 03:37:11;;;;;;;42.92;14.88;;;6.10;99.90;;;;;;5066075;28;20045;-67
2023/02/12 03:39:44;;;;;;;45.08;12.50;;;6.10;99.90;;;;;;5049356;28;20052;-68
2023/02/12 03:42:16;;;;;;;38.10;13.15;;;6.10;99.90;;;;;;5047086;28;20052;-68
2023/02/12 03:44:55;;;;;;;34.33;11.55;;;6.10;99.90;;;;;;5048871;28;20040;-68
2023/02/12 03:47:29;;;;;;;33.03;12.10;;;6.10;99.90;;;;;;5066988;28;20044;-67
2023/02/12 03:50:01;;;;;;;46.95;13.02;;;6.00;99.90;;;;;;5047590;28;20049;-68
2023/02/12 03:52:29;;;;;;;37.35;11.25;;;6.10;99.90;;;;;;5048854;28;20056;-68
2023/02/12 03:54:54;;;;;;;49.08;14.88;;;6.00;99.90;;;;;;5049766;28;20432;-67
2023/02/12 03:57:26;;;;;;;48.63;12.63;;;6.00;99.90;;;;;;5070459;28;20064;-68
2023/02/12 03:59:52;;;;;;;35.05;12.07;;;6.10;99.90;;;;;;5070237;28;20041;-67
2023/02/12 04:02:18;;;;;;;32.03;12.35;;;6.00;99.90;;;;;;5069337;28;20125;-68
2023/02/12 04:04:46;;;;;;;36.33;12.75;;;6.00;99.90;;;;;;5071434;28;20055;-67
2023/02/12 04:07:12;;;;;;;49.85;16.70;;;6.00;99.90;;;;;;5068639;28;20549;-67
2023/02/12 04:09:38;;;;;;;37.38;13.52;;;6.00;99.90;;;;;;5070149;28;20056;-68
2023/02/12 04:12:23;;;;;;;43.20;14.10;;;6.00;99.90;;;;;;5050563;28;20060;-67
2023/02/12 04:14:56;;;;;;;41.22;14.15;;;6.00;99.90;;;;;;5058276;28;20123;-67
2023/02/12 04:17:49;;;;;;;46.72;12.15;;;5.90;99.90;;;;;;5069853;28;20115;-67
2023/02/12 04:20:54;;;;;;;53.25;14.35;;;6.00;99.90;;;;;;5067876;28;20048;-68
2023/02/12 04:23:32;;;;;;;48.22;12.48;;;5.90;99.90;;;;;;5011634;28;20060;-67
2023/02/12 04:26:20;;;;;;;64.45;13.05;;;5.90;99.90;;;;;;5070312;28;20411;-67
2023/02/12 04:28:49;;;;;;;48.70;11.60;;;5.90;99.90;;;;;;5069141;28;20124;-67
2023/02/12 04:31:45;;;;;;;48.35;12.45;;;5.90;99.90;;;;;;5034543;28;20054;-68
2023/02/12 04:34:36;;;;;;;60.20;11.85;;;5.90;99.90;;;;;;5050939;28;20406;-68
2023/02/12 04:37:08;;;;;;;37.55;8.85;;;5.90;99.90;;;;;;5057843;28;20041;-68
2023/02/12 04:39:37;;;;;;;38.28;8.15;;;5.90;99.90;;;;;;5070168;28;20037;-68
2023/02/12 04:42:04;;;;;;;41.67;10.03;;;5.90;99.90;;;;;;5050232;28;20048;-68
2023/02/12 04:44:32;;;;;;;105.25;12.23;;;5.90;99.90;;;;;;5069820;28;20406;-68
2023/02/12 04:46:59;;;;;;;131.73;12.93;;;5.90;99.90;;;;;;5068725;28;20040;-68
2023/02/12 04:49:25;;;;;;;59.15;10.90;;;5.80;99.90;;;;;;5051247;28;20044;-68
2023/02/12 04:51:51;;;;;;;16.42;6.63;;;5.80;99.90;;;;;;5069549;28;20109;-68
2023/02/12 04:54:19;;;;;;;35.15;8.90;;;5.80;99.90;;;;;;5068593;28;20086;-68
2023/02/12 04:56:45;;;;;;;13.80;6.18;;;5.80;99.90;;;;;;5051623;28;20617;-68
2023/02/12 04:59:12;;;;;;;55.78;9.02;;;5.80;99.90;;;;;;5050159;28;20135;-68
2023/02/12 05:01:39;;;;;;;63.10;9.13;;;5.70;99.90;;;;;;5051166;28;20051;-68
2023/02/12 05:04:06;;;;;;;58.50;9.30;;;5.70;99.90;;;;;;5033892;28;20044;-68
2023/02/12 05:06:37;;;;;;;20.42;6.55;;;5.60;99.90;;;;;;5050084;28;20478;-67
2023/02/12 05:09:03;;;;;;;30.05;7.65;;;5.60;99.90;;;;;;5037292;28;20056;-67
2023/02/12 05:11:29;;;;;;;24.60;7.60;;;5.60;99.90;;;;;;5068478;28;20031;-67
2023/02/12 05:13:55;;;;;;;24.65;7.78;;;5.60;99.90;;;;;;5069292;28;20044;-67
2023/02/12 05:16:22;;;;;;;26.67;9.35;;;5.60;99.90;;;;;;5067411;28;20135;-67
2023/02/12 05:18:47;;;;;;;54.42;9.40;;;5.60;99.90;;;;;;5069827;28;20186;-68
2023/02/12 05:21:14;;;;;;;112.90;10.60;;;5.60;99.90;;;;;;5049675;28;20671;-68
2023/02/12 05:23:41;;;;;;;183.82;15.38;;;5.60;99.90;;;;;;5034752;28;20049;-67
2023/02/12 05:26:11;;;;;;;146.30;13.18;;;5.60;99.90;;;;;;5050590;28;20080;-68
2023/02/12 05:28:38;;;;;;;60.80;8.25;;;5.60;99.90;;;;;;5068496;28;20041;-67
2023/02/12 05:31:09;;;;;;;48.42;6.10;;;5.60;99.90;;;;;;5069148;28;20409;-68
2023/02/12 05:33:35;;;;;;;44.40;5.60;;;5.60;99.90;;;;;;5048906;28;20397;-67
2023/02/12 05:36:10;;;;;;;31.20;4.63;;;5.60;99.90;;;;;;5069201;28;20051;-67
2023/02/12 05:38:36;;;;;;;40.78;5.00;;;5.60;99.90;;;;;;5032167;28;20407;-68
2023/02/12 05:41:03;;;;;;;49.38;5.28;;;5.60;99.90;;;;;;5050228;28;20059;-68
2023/02/12 05:43:30;;;;;;;50.45;6.05;;;5.60;99.90;;;;;;5066913;28;20053;-67
2023/02/12 05:46:01;;;;;;;92.30;11.45;;;5.60;99.90;;;;;;5070142;28;20502;-67
2023/02/12 05:48:27;;;;;;;;;;;5.60;99.90;;;;;;5053640;28;20053;-68
2023/02/12 05:50:53;;;;;;;56.15;7.20;;;5.60;99.90;;;;;;5049142;28;20442;-67
2023/02/12 05:53:19;;;;;;;78.88;8.25;;;5.60;99.90;;;;;;5049236;28;20086;-67
2023/02/12 05:55:47;;;;;;;143.57;8.80;;;5.60;99.90;;;;;;5066523;28;20040;-67
2023/02/12 05:58:13;;;;;;;118.30;11.80;;;5.60;99.90;;;;;;5067861;28;20056;-67
2023/02/12 06:00:38;;;;;;;127.78;10.32;;;5.60;99.90;;;;;;5048979;28;20484;-67
2023/02/12 06:03:05;;;;;;;83.70;8.18;;;5.60;99.90;;;;;;5049610;28;20048;-67
2023/02/12 06:05:31;;;;;;;142.15;11.32;;;5.60;99.90;;;;;;5068211;28;20037;-67
2023/02/12 06:07:56;;;;;;;119.47;11.35;;;5.60;99.90;;;;;;5067041;28;20393;-68
2023/02/12 06:10:22;;;;;;;177.98;12.80;;;5.70;99.90;;;;;;5049242;28;20119;-67
2023/02/12 06:12:54;;;;;;;73.22;7.70;;;5.60;99.90;;;;;;5048554;28;20041;-67
2023/02/12 06:15:19;;;;;;;69.28;6.57;;;5.60;99.90;;;;;;5068514;28;20052;-67
2023/02/12 06:17:47;;;;;;;50.85;5.50;;;5.60;99.90;;;;;;5048441;28;20040;-67
2023/02/12 06:20:14;;;;;;;71.45;9.13;;;5.60;99.90;;;;;;5049975;28;20049;-67
2023/02/12 06:22:40;;;;;;;27.83;6.63;;;5.60;99.90;;;;;;5049237;28;20055;-67
2023/02/12 06:25:06;;;;;;;12.15;4.97;;;5.60;99.90;;;;;;5048724;28;20479;-68
2023/02/12 06:27:32;;;;;;;27.15;5.70;;;5.60;99.90;;;;;;5067513;28;20076;-68
2023/02/12 06:29:57;;;;;;;24.67;5.32;;;5.60;99.90;;;;;;5066772;28;20044;-67
2023/02/12 06:32:24;;;;;;;27.77;5.88;;;5.60;99.90;;;;;;5067858;28;20832;-67
2023/02/12 06:34:50;;;;;;;42.22;7.30;;;5.60;99.90;;;;;;5066246;28;20418;-68
2023/02/12 06:37:15;;;;;;;28.45;7.10;;;5.60;99.90;;;;;;5050133;28;20110;-67
2023/02/12 06:39:41;;;;;;;28.23;6.55;;;5.60;99.90;;;;;;5049043;28;20494;-68
2023/02/12 06:42:07;;;;;;;43.75;7.32;;;5.60;99.90;;;;;;5048740;28;20114;-68
2023/02/12 06:44:33;;;;;;;92.18;8.98;;;5.60;99.90;;;;;;5049041;28;20053;-68
2023/02/12 06:46:58;;;;;;;76.38;8.52;;;5.60;99.90;;;;;;5065215;28;20055;-68
2023/02/12 06:49:24;;;;;;;37.67;6.45;;;5.60;99.90;;;;;;5049853;28;20048;-68
2023/02/12 06:51:50;;;;;;;17.23;5.10;;;5.60;99.90;;;;;;5048127;28;20064;-68
2023/02/12 06:54:17;;;;;;;15.77;5.90;;;5.60;99.90;;;;;;5049693;28;20390;-68
2023/02/12 06:56:43;;;;;;;9.25;4.63;;;5.60;99.90;;;;;;5048285;28;20053;-67
2023/02/12 06:59:14;;;;;;;11.18;4.78;;;5.60;99.90;;;;;;5049043;28;20052;-68
2023/02/12 07:01:40;;;;;;;15.57;5.30;;;5.50;99.90;;;;;;5049195;28;20098;-67
2023/02/12 07:04:06;;;;;;;14.52;4.28;;;5.50;99.90;;;;;;5047917;28;20049;-68
2023/02/12 07:06:34;;;;;;;13.05;4.32;;;5.50;99.90;;;;;;5067254;28;20047;-68
2023/02/12 07:09:01;;;;;;;14.20;4.10;;;5.60;99.90;;;;;;5065605;28;20562;-68
2023/02/12 07:11:30;;;;;;;23.15;5.47;;;5.50;99.90;;;;;;5032886;28;20041;-68
2023/02/12 07:13:56;;;;;;;13.50;5.38;;;5.50;99.90;;;;;;5032432;28;20045;-67
2023/02/12 07:16:23;;;;;;;13.98;5.13;;;5.50;99.90;;;;;;5032196;28;20036;-68
2023/02/12 07:18:48;;;;;;;27.42;6.32;;;5.60;99.90;;;;;;5048554;28;20044;-68
2023/02/12 07:21:15;;;;;;;41.67;8.90;;;5.60;99.90;;;;;;5065746;28;20059;-68
2023/02/12 07:23:46;;;;;;;52.35;9.18;;;5.50;99.90;;;;;;5066915;28;20036;-68
2023/02/12 07:26:12;;;;;;;30.33;7.30;;;5.60;99.90;;;;;;5065502;28;20041;-68
2023/02/12 07:28:39;;;;;;;50.45;9.45;;;5.60;99.90;;;;;;5067415;28;20102;-68
2023/02/12 07:31:10;;;;;;;73.93;13.63;;;5.60;99.90;;;;;;5070216;28;20053;-68
2023/02/12 07:33:38;;;;;;;143.05;17.70;;;5.60;99.90;;;;;;5052456;28;20048;-68
2023/02/12 07:36:05;;;;;;;115.18;15.48;;;5.70;99.90;;;;;;5053291;28;20734;-68
2023/02/12 07:38:31;;;;;;;130.30;16.73;;;5.70;99.90;;;;;;5069832;28;20222;-68
2023/02/12 07:41:18;;;;;;;147.35;15.13;;;5.70;99.90;;;;;;5069855;28;20135;-68
2023/02/12 07:43:46;;;;;;;110.97;12.55;;;5.70;99.90;;;;;;5050187;28;20520;-68
2023/02/12 07:46:15;;;;;;;81.03;8.55;;;5.70;99.90;;;;;;5037017;28;20634;-68
2023/02/12 07:48:41;;;;;;;35.30;7.90;;;5.70;99.90;;;;;;5038742;28;20048;-68
2023/02/12 07:51:10;;;;;;;53.97;8.95;;;5.80;99.90;;;;;;5052015;28;20318;-68
2023/02/12 07:53:38;;;;;;;67.20;9.95;;;5.70;99.90;;;;;;5051779;28;20460;-68
2023/02/12 07:56:09;;;;;;;48.63;9.77;;;5.80;99.90;;;;;;5051254;28;20048;-68
2023/02/12 07:58:36;;;;;;;42.63;10.70;;;5.80;99.90;;;;;;5049459;28;20479;-68
2023/02/12 08:01:21;;;;;;;37.37;10.50;;;5.80;99.90;;;;;;5050062;28;20055;-68
2023/02/12 08:03:48;;;;;;;57.88;16.95;;;5.90;99.90;;;;;;5049149;28;20099;-68
2023/02/12 08:06:23;;;;;;;84.38;19.02;;;5.90;99.90;;;;;;5050578;28;20053;-68
2023/02/12 08:08:58;;;;;;;35.65;11.18;;;5.90;99.90;;;;;;5048577;28;20128;-68
2023/02/12 08:11:25;;;;;;;53.53;13.50;;;6.00;99.90;;;;;;5049501;28;20045;-68
2023/02/12 08:13:51;;;;;;;40.97;12.05;;;6.00;99.90;;;;;;5049244;28;20056;-68
2023/02/12 08:16:20;;;;;;;24.00;7.85;;;6.10;99.90;;;;;;5050705;28;20033;-68
2023/02/12 08:18:49;;;;;;;18.30;7.38;;;6.10;99.90;;;;;;5044589;28;20106;-68
2023/02/12 08:21:17;;;;;;;23.58;8.32;;;6.10;99.90;;;;;;5048468;28;20048;-68
2023/02/12 08:23:44;;;;;;;28.08;9.07;;;6.20;99.90;;;;;;5050320;28;20045;-68
2023/02/12 08:26:11;;;;;;;26.75;9.23;;;6.20;99.90;;;;;;5048814;28;20045;-68
2023/02/12 08:28:39;;;;;;;41.28;10.77;;;6.20;99.90;;;;;;5065528;28;20041;-67
2023/02/12 08:31:11;;;;;;;43.13;10.50;;;6.30;99.90;;;;;;5048457;28;20053;-67
2023/02/12 08:33:37;;;;;;;197.25;18.08;;;6.30;99.90;;;;;;5048901;28;20151;-67
2023/02/12 08:36:13;;;;;;;52.38;11.40;;;6.40;99.90;;;;;;5048741;28;20132;-67
2023/02/12 08:38:39;;;;;;;60.10;10.30;;;6.40;99.90;;;;;;5045809;28;20048;-67
2023/02/12 08:41:13;;;;;;;31.35;10.00;;;6.40;99.90;;;;;;5048692;28;20395;-67
2023/02/12 08:43:40;;;;;;;46.83;9.10;;;6.40;99.90;;;;;;5045431;28;20094;-67
2023/02/12 08:46:08;;;;;;;19.48;8.15;;;6.40;99.90;;;;;;5048605;28;20044;-67
2023/02/12 08:48:34;;;;;;;18.20;7.53;;;6.40;99.90;;;;;;5030025;28;20068;-67
2023/02/12 08:51:15;;;;;;;22.55;9.23;;;6.50;99.90;;;;;;5049331;28;20119;-67
2023/02/12 08:53:43;;;;;;;20.80;8.60;;;6.50;99.90;;;;;;5048462;28;20052;-67
2023/02/12 08:56:12;;;;;;;23.33;8.85;;;6.50;99.90;;;;;;5046232;28;20052;-67
2023/02/12 08:58:37;;;;;;;15.52;8.13;;;6.50;99.90;;;;;;5048470;28;20059;-67
2023/02/12 09:01:07;;;;;;;16.48;7.68;;;6.60;99.90;;;;;;5046509;28;20057;-67
2023/02/12 09:03:33;;;;;;;11.65;6.82;;;6.60;99.90;;;;;;5049868;28;20146;-67
2023/02/12 09:06:02;;;;;;;11.85;6.38;;;6.60;99.90;;;;;;5047975;28;20075;-67
2023/02/12 09:08:28;;;;;;;9.80;5.97;;;6.60;99.90;;;;;;5049333;28;20116;-67
2023/02/12 09:10:53;;;;;;;9.75;6.43;;;6.60;99.90;;;;;;5048670;28;20171;-67
2023/02/12 09:13:19;;;;;;;9.52;6.15;;;6.70;99.90;;;;;;5047004;28;20509;-67
2023/02/12 09:15:45;;;;;;;13.82;6.80;;;6.70;99.90;;;;;;5048092;28;20057;-67
2023/02/12 09:18:13;;;;;;;11.65;6.43;;;6.70;99.90;;;;;;5045748;28;20501;-67
2023/02/12 09:20:41;;;;;;;13.68;6.78;;;6.80;99.90;;;;;;5046948;28;20061;-67
2023/02/12 09:23:08;;;;;;;8.57;5.80;;;6.80;99.90;;;;;;5049839;28;20407;-67
2023/02/12 09:25:37;;;;;;;12.43;6.25;;;6.80;99.90;;;;;;5051384;28;20033;-67
2023/02/12 09:28:04;;;;;;;8.05;6.25;;;6.80;99.90;;;;;;5029313;28;20048;-67
2023/02/12 09:30:29;;;;;;;11.65;6.55;;;6.90;99.90;;;;;;5047747;28;20402;-67
2023/02/12 09:32:55;;;;;;;10.45;6.70;;;6.90;99.90;;;;;;5048552;28;20045;-67
2023/02/12 09:35:22;;;;;;;14.85;7.63;;;7.00;99.90;;;;;;5047240;28;20187;-67
2023/02/12 09:37:48;;;;;;;16.52;7.57;;;7.00;99.90;;;;;;5047399;28;20084;-67
2023/02/12 09:40:37;;;;;;;20.13;8.13;;;7.10;99.90;;;;;;5046809;28;20134;-67
2023/02/12 09:43:38;;;;;;;17.70;8.75;;;7.20;99.90;;;;;;5046791;28;20131;-67
2023/02/12 09:46:16;;;;;;;15.10;8.55;;;7.20;99.90;;;;;;5045372;28;20124;-67
2023/02/12 09:48:54;;;;;;;17.15;8.98;;;7.20;99.90;;;;;;5046683;28;20094;-67
2023/02/12 09:51:21;;;;;;;16.35;8.90;;;7.30;99.90;;;;;;5047065;28;20084;-67
2023/02/12 09:53:54;;;;;;;18.17;9.25;;;7.30;99.90;;;;;;5047917;28;20430;-67
2023/02/12 09:56:23;;;;;;;17.00;9.40;;;7.40;99.90;;;;;;5047161;28;20049;-67
2023/02/12 09:58:57;;;;;;;19.85;9.18;;;7.50;99.90;;;;;;5050105;28;20506;-67
2023/02/12 10:01:23;;;;;;;22.05;9.73;;;7.40;99.90;;;;;;5049063;28;20052;-67
2023/02/12 10:03:51;;;;;;;18.33;9.40;;;7.50;99.90;;;;;;5068701;28;20456;-67
2023/02/12 10:06:30;;;;;;;23.30;10.40;;;7.50;99.90;;;;;;5048615;28;20037;-67
2023/02/12 10:09:13;;;;;;;17.17;9.52;;;7.60;99.90;;;;;;5067043;28;20445;-67
2023/02/12 10:11:45;;;;;;;19.60;9.90;;;7.60;99.90;;;;;;5068353;28;20037;-66
2023/02/12 10:14:39;;;;;;;20.38;10.52;;;7.60;99.90;;;;;;5066445;28;20041;-67
2023/02/12 10:17:23;;;;;;;23.27;11.10;;;7.70;99.90;;;;;;5067984;28;20051;-67
2023/02/12 10:20:13;;;;;;;24.73;10.05;;;7.70;99.90;;;;;;5067599;28;20044;-67
2023/02/12 10:23:13;;;;;;;21.70;10.23;;;7.70;99.90;;;;;;5066283;28;20110;-67
2023/02/12 10:25:49;;;;;;;26.73;11.35;;;7.70;99.90;;;;;;5068181;28;20045;-67
2023/02/12 10:28:23;;;;;;;25.83;12.15;;;7.70;99.90;;;;;;5066351;28;20048;-66
2023/02/12 10:30:54;;;;;;;27.92;12.45;;;7.80;99.90;;;;;;5067055;28;20045;-67
2023/02/12 10:33:42;;;;;;;29.77;11.75;;;7.80;99.90;;;;;;5033005;28;20052;-67
2023/02/12 10:36:41;;;;;;;26.20;12.02;;;7.90;99.90;;;;;;5023562;28;20049;-66
2023/02/12 10:39:11;;;;;;;29.92;13.40;;;8.00;99.90;;;;;;5058340;28;20572;-67
2023/02/12 10:41:42;;;;;;;26.38;12.93;;;8.00;99.90;;;;;;5067273;28;20055;-67
2023/02/12 10:44:11;;;;;;;27.70;13.02;;;8.00;99.90;;;;;;5047836;28;20414;-67
2023/02/12 10:46:37;;;;;;;32.45;13.05;;;7.90;99.90;;;;;;5049305;28;20123;-67
2023/02/12 10:49:05;;;;;;;25.80;11.82;;;8.00;99.90;;;;;;5065497;28;20124;-67
2023/02/12 10:51:59;;;;;;;30.95;14.15;;;8.00;99.90;;;;;;5048806;28;20052;-67
2023/02/12 10:54:37;;;;;;;30.50;14.00;;;7.90;99.90;;;;;;5065954;28;20045;-67
2023/02/12 10:57:25;;;;;;;28.33;12.88;;;7.90;99.90;;;;;;5064266;28;20525;-67
2023/02/12 10:59:54;;;;;;;26.65;12.18;;;8.00;99.90;;;;;;5043811;28;20071;-67
2023/02/12 11:02:57;;;;;;;27.25;12.75;;;8.00;99.90;;;;;;5047645;28;20102;-66
2023/02/12 11:05:27;;;;;;;25.70;12.95;;;8.10;99.90;;;;;;5062711;28;20098;-67
2023/02/12 11:07:54;;;;;;;28.38;12.85;;;8.10;99.90;;;;;;5049562;28;20044;-67
2023/02/12 11:10:30;;;;;;;30.77;13.98;;;8.10;99.90;;;;;;5065588;28;20048;-68
2023/02/12 11:12:58;;;;;;;32.25;14.02;;;8.20;99.90;;;;;;5044156;28;20624;-67
2023/02/12 11:15:26;;;;;;;30.17;13.30;;;8.20;99.90;;;;;;5047884;28;20714;-67
2023/02/12 11:18:07;;;;;;;28.80;12.98;;;8.30;99.90;;;;;;5049026;28;20072;-67
2023/02/12 11:20:48;;;;;;;28.35;12.63;;;8.40;99.90;;;;;;5049150;28;20093;-68
2023/02/12 11:23:28;;;;;;;22.00;12.25;;;8.50;99.90;;;;;;5063051;28;20051;-68
2023/02/12 11:26:17;;;;;;;21.10;11.63;;;8.60;99.90;;;;;;5048949;28;20048;-67
2023/02/12 11:28:56;;;;;;;23.70;12.93;;;8.50;99.90;;;;;;5054544;28;20048;-67
2023/02/12 11:31:24;;;;;;;28.92;12.65;;;8.50;99.90;;;;;;5065026;28;20045;-67
2023/02/12 11:34:13;;;;;;;27.55;12.63;;;8.60;99.90;;;;;;5032264;28;20037;-68
2023/02/12 11:36:51;;;;;;;25.63;13.02;;;8.60;99.90;;;;;;5065316;28;20088;-67
2023/02/12 11:39:25;;;;;;;24.88;13.00;;;8.60;99.90;;;;;;5031848;28;20052;-67
2023/02/12 11:41:58;;;;;;;27.48;12.55;;;8.70;99.90;;;;;;5066150;28;20053;-67
2023/02/12 11:44:43;;;;;;;29.30;13.38;;;8.80;99.90;;;;;;5064983;28;20036;-67
2023/02/12 11:47:17;;;;;;;23.27;11.95;;;8.80;99.90;;;;;;5064292;28;20048;-68
2023/02/12 11:49:54;;;;;;;31.88;13.40;;;8.80;99.90;;;;;;5064746;28;20041;-66
2023/02/12 11:52:23;;;;;;;26.45;12.23;;;8.80;99.90;;;;;;5066245;28;20514;-66
2023/02/12 11:54:52;;;;;;;21.58;11.10;;;8.90;99.90;;;;;;5065700;28;20063;-65
2023/02/12 11:58:00;;;;;;;20.08;11.23;;;8.90;99.90;;;;;;5047098;28;20048;-65
2023/02/12 12:00:44;;;;;;;24.73;11.00;;;8.90;99.90;;;;;;4987590;28;20416;-66
2023/02/12 12:03:20;;;;;;;20.67;10.27;;;8.90;99.90;;;;;;5063230;28;20053;-65
2023/02/12 12:06:04;;;;;;;25.63;11.50;;;9.00;99.90;;;;;;5044006;28;20419;-66
2023/02/12 12:08:59;;;;;;;17.23;10.48;;;9.10;99.90;;;;;;5048217;28;20072;-65
2023/02/12 12:11:36;;;;;;;19.98;9.77;;;9.10;99.90;;;;;;5018009;28;20045;-65
2023/02/12 12:14:05;;;;;;;19.40;10.50;;;9.10;99.90;;;;;;5047578;28;20050;-65
2023/02/12 12:19:51;;;;;;;25.58;11.23;;;9.10;99.90;;;;;;5067973;28;20044;-65
2023/02/12 12:22:39;;;;;;;24.38;10.40;;;9.10;99.90;;;;;;5035281;28;20131;-65
2023/02/12 12:25:29;;;;;;;20.10;11.68;;;9.10;99.90;;;;;;5051774;28;20044;-65
2023/02/12 12:28:09;;;;;;;;;;;9.10;99.90;;;;;;5051114;28;20093;-66
2023/02/12 12:30:42;;;;;;;15.98;9.30;;;9.10;99.90;;;;;;5051792;28;19924;-66
2023/02/12 12:33:27;;;;;;;23.75;11.27;;;9.20;99.90;;;;;;5067876;28;20054;-65
2023/02/12 12:36:05;;;;;;;16.73;8.93;;;9.30;99.90;;;;;;5050943;28;20106;-65
2023/02/12 12:38:50;;;;;;;16.90;9.07;;;9.30;99.90;;;;;;5049384;28;20052;-65
2023/02/12 12:41:34;;;;;;;16.08;7.85;;;9.40;99.90;;;;;;5033922;28;20547;-65
2023/02/12 12:44:32;;;;;;;18.92;8.27;;;9.40;99.90;;;;;;5052220;28;20132;-65
2023/02/12 12:47:22;;;;;;;14.50;8.40;;;9.50;99.90;;;;;;5031861;28;20060;-65
2023/02/12 12:50:09;;;;;;;18.95;8.80;;;9.60;99.90;;;;;;5046106;28;20098;-65
2023/02/12 12:52:56;;;;;;;12.75;7.43;;;9.70;99.90;;;;;;5069393;28;20052;-65
2023/02/12 12:55:51;;;;;;;11.43;6.35;;;9.70;99.90;;;;;;5069050;28;20051;-65
2023/02/12 12:58:33;;;;;;;15.80;7.20;;;9.70;99.90;;;;;;5040608;28;20801;-66
2023/02/12 13:01:05;;;;;;;10.70;5.85;;;9.70;99.90;;;;;;5047805;28;20049;-65
2023/02/12 13:03:51;;;;;;;14.02;6.65;;;9.70;99.90;;;;;;5045567;28;20376;-65
2023/02/12 13:06:17;;;;;;;13.10;6.80;;;9.60;99.90;;;;;;5046541;28;20056;-66
2023/02/12 13:09:04;;;;;;;12.15;5.38;;;9.60;99.90;;;;;;5047176;28;20036;-65
2023/02/12 13:12:03;;;;;;;9.02;5.68;;;9.50;99.90;;;;;;5045622;28;20083;-65
2023/02/12 13:14:42;;;;;;;11.90;6.10;;;9.40;99.90;;;;;;5047568;28;20040;-65
2023/02/12 13:17:35;;;;;;;10.88;5.47;;;9.40;99.90;;;;;;5041259;28;20041;-65